LFMO

Orange-Caritat (BA 115) Air Base Airport

Orange/Caritat, France
METAR LFMO 190230Z AUTO 33005KT 8000 NSC 04/01 Q1010 TEMPO 3000 BR
Observed Flight Rules
Nov-19 @ 02:30 UTC (38 minutes ago) Marginal Visual Flight Rules
Wind Visibility Clouds
330° at 5 knots 7,998 meters
  • Clear skies
Temperatures Readings
Current 4°C / 39°F
Dewpoint 1°C / 34°F
Humidity 81%
Altimeter 29.82" Hg
Pressure 1010 hPa
Elevation 55
METAR LFMO 190230Z AUTO 33005KT 8000 NSC 04/01 Q1010 TEMPO 3000 BR
Observed Flight Rules
Nov-19 @ 02:30 UTC
(38 minutes ago)
MVFR
Wind Visibility
330° at 5 knots 7,998 meters
Clouds
  • Clear skies
Temperature Dewpoint
4°C / 39°F 1°C / 34°F
Humidity Altimeter Pressure
81% 29.82" Hg 1010 hPa